Time;durP1;ratioP1;P1;durP2;ratioP2;P2;SDS_P1;SDS_P2;PMS_P1;PMS_P2;Temp;Humidity;BMP_temperature;BMP_pressure;BME280_temperature;BME280_humidity;BME280_pressure;Samples;Min_cycle;Max_cycle;Signal;HPM_P1;HPM_P2
2021/03/24 00:01:12;;;;;;;12.73;9.32;;;5.70;99.90;;;;;;5141617;28;20198;-84
2021/03/24 00:03:39;;;;;;;15.07;9.65;;;5.70;98.80;;;;;;5122395;28;20192;-83
2021/03/24 00:06:07;;;;;;;15.05;9.48;;;6.10;99.30;;;;;;5120621;28;20213;-85
2021/03/24 00:08:34;;;;;;;12.23;9.38;;;5.70;99.10;;;;;;5107932;28;20203;-84
2021/03/24 00:11:02;;;;;;;16.48;9.20;;;6.00;99.40;;;;;;5134544;28;20228;-82
2021/03/24 00:13:29;;;;;;;16.30;9.65;;;5.70;99.30;;;;;;5139418;28;20213;-85
2021/03/24 00:15:57;;;;;;;13.48;9.38;;;5.80;98.70;;;;;;5114344;28;20199;-83
2021/03/24 00:18:25;;;;;;;12.18;9.95;;;5.90;98.60;;;;;;5100299;28;20198;-84
2021/03/24 00:20:53;;;;;;;14.13;9.18;;;5.90;98.90;;;;;;5126040;28;20231;-85
2021/03/24 00:23:20;;;;;;;13.55;10.73;;;5.60;98.70;;;;;;5135658;28;20205;-82
2021/03/24 00:25:48;;;;;;;13.02;9.10;;;5.60;98.90;;;;;;5118177;28;20237;-83
2021/03/24 00:28:16;;;;;;;13.07;11.00;;;5.60;99.30;;;;;;5118497;27;20244;-83
2021/03/24 00:30:47;;;;;;;13.75;9.52;;;5.60;99.70;;;;;;5117426;28;20208;-83
2021/03/24 00:33:19;;;;;;;13.60;9.48;;;5.50;99.50;;;;;;5116725;28;20221;-85
2021/03/24 00:35:46;;;;;;;14.02;10.18;;;5.50;99.90;;;;;;5126435;28;20201;-84
2021/03/24 00:38:15;;;;;;;15.23;10.30;;;5.10;99.90;;;;;;5117882;28;20782;-84
2021/03/24 00:40:45;;;;;;;12.55;10.40;;;5.50;99.90;;;;;;5118143;28;20226;-82
2021/03/24 00:43:13;;;;;;;12.50;10.25;;;5.60;99.90;;;;;;5118333;28;20202;-83
2021/03/24 00:45:41;;;;;;;10.90;8.68;;;5.90;99.90;;;;;;5137765;27;20598;-82
2021/03/24 00:48:17;;;;;;;13.15;9.02;;;5.60;99.90;;;;;;5126256;28;20204;-83
2021/03/24 00:50:46;;;;;;;15.85;11.00;;;5.60;99.90;;;;;;5136587;27;20216;-83
2021/03/24 00:53:14;;;;;;;12.63;8.90;;;5.60;99.90;;;;;;5122315;27;20225;-83
2021/03/24 00:55:41;;;;;;;13.18;8.90;;;5.70;99.90;;;;;;5119096;27;20257;-82
2021/03/24 00:58:09;;;;;;;13.05;9.30;;;5.50;99.90;;;;;;5138684;27;20249;-83
2021/03/24 01:00:38;;;;;;;12.52;8.70;;;5.40;99.90;;;;;;5134891;27;20628;-83
2021/03/24 01:03:06;;;;;;;11.32;9.45;;;5.40;99.90;;;;;;5130245;27;20189;-84
2021/03/24 01:05:36;;;;;;;13.07;8.73;;;5.40;99.90;;;;;;5117179;27;20294;-83
2021/03/24 01:08:07;;;;;;;11.82;8.27;;;5.40;99.90;;;;;;5117215;27;20653;-81
2021/03/24 01:10:37;;;;;;;12.40;8.45;;;5.30;99.90;;;;;;5127564;27;20236;-82
2021/03/24 01:13:04;;;;;;;10.93;8.30;;;5.50;99.90;;;;;;5139941;27;20278;-83
2021/03/24 01:15:33;;;;;;;11.73;9.80;;;5.30;99.90;;;;;;5117286;27;20215;-84
2021/03/24 01:18:00;;;;;;;12.20;8.65;;;5.30;99.90;;;;;;5139428;27;20215;-84
2021/03/24 01:20:30;;;;;;;12.05;9.40;;;5.30;99.90;;;;;;5120358;27;20260;-82
2021/03/24 01:22:58;;;;;;;12.13;9.05;;;5.20;99.90;;;;;;5135907;27;20197;-82
2021/03/24 01:25:27;;;;;;;12.07;8.77;;;5.20;99.90;;;;;;5138608;27;20196;-81
2021/03/24 01:27:55;;;;;;;14.80;8.57;;;5.20;99.90;;;;;;5117229;27;20257;-83
2021/03/24 01:30:24;;;;;;;12.00;8.77;;;5.20;99.90;;;;;;5138220;27;20713;-84
2021/03/24 01:32:52;;;;;;;13.30;9.15;;;5.40;99.90;;;;;;5131640;27;20297;-83
2021/03/24 01:35:20;;;;;;;11.50;9.23;;;5.20;99.90;;;;;;5120182;27;20246;-81
2021/03/24 01:37:48;;;;;;;11.18;8.77;;;5.20;99.90;;;;;;5134406;27;20205;-82
2021/03/24 01:40:24;;;;;;;10.35;8.38;;;5.20;99.90;;;;;;5116503;27;20731;-80
2021/03/24 01:42:54;;;;;;;15.30;9.40;;;5.20;99.90;;;;;;5127377;27;20209;-80
2021/03/24 01:46:01;;;;;;;10.88;9.10;;;5.20;99.90;;;;;;5132459;27;20206;-80
2021/03/24 01:48:28;;;;;;;13.15;9.43;;;5.20;99.90;;;;;;5077044;28;20224;-79
2021/03/24 01:50:56;;;;;;;10.55;8.45;;;5.20;99.90;;;;;;5135281;27;20216;-81
2021/03/24 01:53:23;;;;;;;12.82;8.50;;;5.10;99.90;;;;;;5124185;27;20640;-81
2021/03/24 01:55:50;;;;;;;10.23;8.77;;;5.40;99.90;;;;;;5132807;27;20197;-81
2021/03/24 01:58:18;;;;;;;10.57;8.70;;;5.20;99.90;;;;;;5132788;27;20200;-80
2021/03/24 02:00:48;;;;;;;13.68;9.50;;;5.10;99.90;;;;;;5105908;27;20225;-80
2021/03/24 02:03:15;;;;;;;11.07;9.93;;;5.10;99.90;;;;;;5119058;27;20203;-78
2021/03/24 02:05:44;;;;;;;11.25;8.15;;;5.10;99.90;;;;;;5139608;27;20213;-82
2021/03/24 02:08:16;;;;;;;9.85;8.25;;;5.10;99.90;;;;;;5119897;27;20323;-79
2021/03/24 02:10:48;;;;;;;10.48;8.10;;;5.10;99.90;;;;;;5115228;27;20878;-81
2021/03/24 02:13:22;;;;;;;12.80;9.43;;;5.10;99.90;;;;;;5137993;27;20782;-82
2021/03/24 02:15:54;;;;;;;14.77;9.65;;;5.40;99.90;;;;;;5117595;27;20319;-82
2021/03/24 02:18:23;;;;;;;12.02;9.13;;;5.00;99.90;;;;;;5120265;27;20209;-80
2021/03/24 02:20:53;;;;;;;11.27;9.27;;;5.10;99.90;;;;;;5119222;27;20216;-82
2021/03/24 02:23:49;;;;;;;12.57;9.82;;;5.30;99.90;;;;;;5132088;27;20206;-83
2021/03/24 02:26:23;;;;;;;9.85;7.93;;;5.00;99.90;;;;;;5136040;27;20226;-82
2021/03/24 02:28:54;;;;;;;11.70;7.95;;;5.00;99.90;;;;;;5136435;27;20217;-81
2021/03/24 02:31:23;;;;;;;13.40;9.40;;;5.30;99.90;;;;;;5133358;27;20204;-81
2021/03/24 02:33:53;;;;;;;14.05;9.38;;;5.00;99.90;;;;;;5135480;27;20210;-81
2021/03/24 02:36:22;;;;;;;14.48;8.95;;;5.00;99.90;;;;;;5118883;27;20543;-79
2021/03/24 02:38:53;;;;;;;11.43;9.57;;;4.90;99.90;;;;;;5116442;27;20200;-83
2021/03/24 02:41:20;;;;;;;12.52;10.25;;;5.00;99.90;;;;;;5129436;27;20273;-82
2021/03/24 02:43:48;;;;;;;12.00;8.70;;;4.90;99.90;;;;;;5116307;27;20231;-83
2021/03/24 02:46:17;;;;;;;11.68;9.43;;;4.90;99.90;;;;;;5136202;27;20260;-84
2021/03/24 02:48:44;;;;;;;11.30;9.10;;;4.90;99.90;;;;;;5116533;27;20798;-83
2021/03/24 02:51:18;;;;;;;11.30;8.60;;;5.20;99.90;;;;;;5116151;27;20205;-84
2021/03/24 02:54:04;;;;;;;13.30;9.60;;;4.90;99.90;;;;;;5122143;27;20243;-82
2021/03/24 02:56:31;;;;;;;11.45;8.20;;;4.90;99.90;;;;;;5133590;27;20228;-82
2021/03/24 02:58:59;;;;;;;12.02;9.77;;;5.10;99.90;;;;;;5120714;27;21638;-83
2021/03/24 03:01:34;;;;;;;13.52;9.70;;;4.80;99.90;;;;;;5137376;27;20207;-81
2021/03/24 03:04:07;;;;;;;12.65;9.60;;;5.20;99.90;;;;;;5137637;27;20320;-83
2021/03/24 03:06:36;;;;;;;12.63;8.30;;;4.80;99.90;;;;;;5119218;27;20235;-83
2021/03/24 03:09:09;;;;;;;14.32;9.60;;;4.90;99.90;;;;;;5116468;27;21809;-83
2021/03/24 03:11:42;;;;;;;14.63;8.73;;;4.80;99.90;;;;;;5115568;27;20197;-84
2021/03/24 03:14:15;;;;;;;13.13;9.48;;;4.70;99.90;;;;;;5133192;27;20582;-86
2021/03/24 03:16:46;;;;;;;14.00;9.85;;;4.70;99.90;;;;;;5116066;27;20195;-84
2021/03/24 03:19:18;;;;;;;12.90;8.98;;;4.80;99.90;;;;;;5133124;27;20229;-85
2021/03/24 03:21:50;;;;;;;13.65;9.73;;;4.70;99.90;;;;;;5102992;28;20466;-85
2021/03/24 03:24:29;;;;;;;11.90;9.25;;;4.70;99.90;;;;;;5110989;27;20196;-85
2021/03/24 03:27:00;;;;;;;13.13;8.23;;;4.80;99.90;;;;;;5106387;27;20257;-83
2021/03/24 03:29:28;;;;;;;12.02;8.20;;;4.80;99.90;;;;;;5114941;27;20219;-83
2021/03/24 03:31:58;;;;;;;12.82;8.13;;;4.80;99.90;;;;;;5135168;27;20234;-83
2021/03/24 03:34:27;;;;;;;10.95;8.30;;;4.70;99.90;;;;;;5116662;27;20310;-82
2021/03/24 03:36:57;;;;;;;10.90;8.60;;;4.80;99.90;;;;;;5128383;27;20604;-82
2021/03/24 03:39:27;;;;;;;11.63;8.85;;;4.80;99.90;;;;;;5134573;27;20245;-82
2021/03/24 03:41:57;;;;;;;12.63;9.13;;;4.90;99.90;;;;;;5126509;27;20199;-82
2021/03/24 03:44:25;;;;;;;11.02;8.40;;;4.80;99.90;;;;;;5117092;27;20204;-84
2021/03/24 03:46:55;;;;;;;11.75;8.35;;;4.90;99.90;;;;;;5132829;27;20650;-83
2021/03/24 03:49:23;;;;;;;12.65;9.40;;;4.80;99.90;;;;;;5117248;28;20218;-81
2021/03/24 03:52:06;;;;;;;11.63;8.02;;;4.80;99.90;;;;;;5116068;27;20205;-80
2021/03/24 03:54:54;;;;;;;11.18;9.07;;;4.80;99.90;;;;;;5116821;28;20215;-80
2021/03/24 03:57:31;;;;;;;17.98;9.00;;;4.70;99.90;;;;;;5127074;28;20201;-81
2021/03/24 04:00:08;;;;;;;11.80;8.55;;;4.70;99.90;;;;;;5109304;28;20240;-83
2021/03/24 04:02:42;;;;;;;12.77;8.85;;;4.80;99.90;;;;;;5110135;28;20195;-81
2021/03/24 04:05:16;;;;;;;12.05;8.00;;;4.70;99.90;;;;;;5116503;28;20220;-82
2021/03/24 04:07:49;;;;;;;8.15;7.35;;;4.60;99.90;;;;;;5126275;28;20261;-80
2021/03/24 04:10:16;;;;;;;12.43;8.27;;;4.70;99.90;;;;;;5139492;27;20220;-81
2021/03/24 04:12:44;;;;;;;11.18;8.90;;;4.60;99.90;;;;;;5110530;28;20226;-82
2021/03/24 04:15:15;;;;;;;15.05;9.45;;;4.60;99.90;;;;;;5136969;28;20200;-81
2021/03/24 04:17:48;;;;;;;13.35;9.40;;;4.60;99.90;;;;;;5134027;28;20192;-81
2021/03/24 04:20:17;;;;;;;16.15;10.70;;;4.60;99.90;;;;;;5134123;28;20309;-83
2021/03/24 04:22:48;;;;;;;11.82;9.70;;;4.60;99.90;;;;;;5109755;28;20194;-83
2021/03/24 04:25:22;;;;;;;11.73;9.35;;;4.60;99.90;;;;;;5117533;27;20211;-82
2021/03/24 04:27:52;;;;;;;11.35;9.13;;;4.60;99.90;;;;;;5117215;27;20210;-82
2021/03/24 04:30:27;;;;;;;16.33;9.55;;;4.60;99.90;;;;;;5118226;27;20236;-84
2021/03/24 04:32:55;;;;;;;16.92;11.27;;;4.70;99.90;;;;;;5139200;27;20220;-82
2021/03/24 04:35:24;;;;;;;12.98;9.32;;;4.70;99.90;;;;;;5138761;27;20194;-82
2021/03/24 04:37:54;;;;;;;15.57;10.88;;;4.70;99.90;;;;;;5121767;27;20263;-82
2021/03/24 04:40:27;;;;;;;15.73;10.57;;;5.10;99.90;;;;;;5104234;27;20219;-82
2021/03/24 04:43:00;;;;;;;13.30;10.10;;;4.70;99.90;;;;;;5117010;27;20563;-82
2021/03/24 04:45:34;;;;;;;11.63;9.48;;;4.60;99.90;;;;;;5118162;27;20282;-81
2021/03/24 04:48:08;;;;;;;14.57;11.30;;;4.60;99.90;;;;;;5116989;27;20215;-81
2021/03/24 04:50:39;;;;;;;13.82;9.93;;;4.50;99.90;;;;;;5121636;27;20298;-82
2021/03/24 04:53:10;;;;;;;13.55;10.05;;;4.40;99.90;;;;;;5108462;28;20219;-81
2021/03/24 04:55:38;;;;;;;13.60;9.75;;;4.40;99.90;;;;;;5130899;27;20208;-83
2021/03/24 04:58:06;;;;;;;14.15;10.73;;;4.40;99.90;;;;;;5139829;27;20203;-83
2021/03/24 05:00:41;;;;;;;13.07;9.30;;;4.40;99.90;;;;;;5115969;27;20221;-83
2021/03/24 05:03:12;;;;;;;13.82;9.95;;;4.50;99.90;;;;;;5116912;27;20192;-81
2021/03/24 05:05:45;;;;;;;15.20;10.63;;;4.50;99.90;;;;;;5107268;28;20335;-80
2021/03/24 05:08:18;;;;;;;15.90;10.63;;;4.50;99.90;;;;;;5129173;27;20200;-81
2021/03/24 05:10:45;;;;;;;15.35;10.30;;;4.50;99.90;;;;;;5129258;27;20227;-83
2021/03/24 05:13:20;;;;;;;13.88;9.27;;;4.80;99.90;;;;;;5129024;27;20218;-83
2021/03/24 05:15:58;;;;;;;13.93;9.00;;;4.60;99.90;;;;;;5108637;27;20203;-83
2021/03/24 05:18:26;;;;;;;14.05;10.20;;;4.50;99.90;;;;;;5120157;27;20210;-82
2021/03/24 05:20:58;;;;;;;17.52;11.18;;;4.50;99.90;;;;;;5114802;27;20339;-80
2021/03/24 05:23:25;;;;;;;11.85;9.13;;;4.50;99.90;;;;;;5119874;27;20573;-77
2021/03/24 05:26:04;;;;;;;12.05;9.45;;;4.60;99.90;;;;;;5124041;27;20205;-77
2021/03/24 05:28:37;;;;;;;13.98;9.15;;;4.40;99.90;;;;;;5131568;27;20302;-82
2021/03/24 05:31:08;;;;;;;13.63;9.88;;;4.40;99.90;;;;;;5133838;27;20252;-84
2021/03/24 05:33:41;;;;;;;13.23;9.50;;;4.40;99.90;;;;;;5133773;27;20214;-83
2021/03/24 05:36:15;;;;;;;15.68;10.40;;;4.40;99.90;;;;;;5108645;28;20197;-83
2021/03/24 05:38:45;;;;;;;14.68;9.85;;;4.40;99.90;;;;;;5104976;27;20541;-82
2021/03/24 05:41:24;;;;;;;15.40;11.52;;;4.40;99.90;;;;;;5127889;27;20516;-82
2021/03/24 05:44:25;;;;;;;13.63;9.50;;;4.40;99.90;;;;;;5125946;27;20565;-83
2021/03/24 05:47:27;;;;;;;12.70;10.45;;;4.40;99.90;;;;;;5117338;27;20199;-80
2021/03/24 05:50:04;;;;;;;13.95;8.93;;;4.40;99.90;;;;;;5126170;27;20722;-80
2021/03/24 05:52:48;;;;;;;13.75;9.65;;;4.50;99.90;;;;;;5140304;27;20206;-79
2021/03/24 05:55:31;;;;;;;13.57;9.70;;;4.30;99.90;;;;;;5134830;27;20221;-81
2021/03/24 05:58:27;;;;;;;14.05;10.20;;;4.30;99.90;;;;;;5105449;27;20212;-79
2021/03/24 06:01:02;;;;;;;15.65;10.02;;;3.90;99.90;;;;;;5109219;27;20228;-80
2021/03/24 06:03:49;;;;;;;12.07;10.48;;;4.30;99.90;;;;;;5116519;27;20399;-80
2021/03/24 06:06:52;;;;;;;13.07;9.48;;;4.30;99.90;;;;;;5112986;27;20211;-80
2021/03/24 06:09:47;;;;;;;15.70;10.52;;;4.30;99.90;;;;;;5127917;27;20285;-79
2021/03/24 06:12:53;;;;;;;12.40;10.25;;;4.30;99.90;;;;;;5128499;27;20192;-81
2021/03/24 06:15:58;;;;;;;15.43;10.88;;;4.30;99.90;;;;;;5021429;28;20230;-81
2021/03/24 06:18:38;;;;;;;19.67;10.25;;;4.40;99.90;;;;;;5094036;27;20222;-80
2021/03/24 06:21:11;;;;;;;19.92;13.40;;;4.90;99.90;;;;;;5095287;27;20303;-79
2021/03/24 06:24:08;;;;;;;17.27;11.90;;;4.90;99.90;;;;;;5101540;27;20666;-80
2021/03/24 06:27:02;;;;;;;16.63;11.40;;;4.70;99.90;;;;;;5125663;27;20291;-79
2021/03/24 06:29:48;;;;;;;18.80;12.02;;;4.80;99.90;;;;;;5104509;27;20624;-81
2021/03/24 06:32:39;;;;;;;14.90;11.18;;;4.90;99.90;;;;;;5110705;27;20201;-80
2021/03/24 06:35:21;;;;;;;16.85;11.95;;;4.80;99.90;;;;;;5131053;27;20913;-79
2021/03/24 06:38:13;;;;;;;16.80;11.50;;;5.20;99.90;;;;;;5126713;27;20204;-81
2021/03/24 06:40:50;;;;;;;17.08;10.95;;;5.00;99.90;;;;;;5123717;27;20229;-81
2021/03/24 06:43:41;;;;;;;13.90;11.52;;;5.00;99.90;;;;;;5128186;27;20207;-81
2021/03/24 06:46:26;;;;;;;16.92;11.05;;;5.20;99.90;;;;;;5126564;27;20766;-81
2021/03/24 06:49:15;;;;;;;17.15;11.43;;;5.40;99.90;;;;;;5113481;27;20769;-79
2021/03/24 06:52:19;;;;;;;14.73;11.32;;;5.50;99.90;;;;;;5100128;27;20285;-78
2021/03/24 06:55:16;;;;;;;18.13;11.05;;;5.40;99.90;;;;;;5130797;27;20213;-78
2021/03/24 06:58:22;;;;;;;15.95;11.80;;;5.60;99.90;;;;;;5083420;27;20217;-81
2021/03/24 07:01:12;;;;;;;17.83;11.73;;;5.40;99.90;;;;;;5036314;27;20242;-78
2021/03/24 07:04:08;;;;;;;17.35;10.60;;;5.50;99.90;;;;;;5118832;27;20197;-78
2021/03/24 07:06:49;;;;;;;17.90;11.70;;;5.70;99.90;;;;;;5084778;27;20313;-78
2021/03/24 07:09:26;;;;;;;20.08;12.88;;;6.10;99.90;;;;;;5121289;27;20217;-79
2021/03/24 07:12:07;;;;;;;16.95;11.45;;;5.90;99.90;;;;;;5126231;27;20667;-79
2021/03/24 07:15:03;;;;;;;15.65;11.45;;;6.10;99.90;;;;;;5124453;27;20217;-79
2021/03/24 07:17:42;;;;;;;17.65;12.00;;;6.30;99.90;;;;;;5120832;27;20216;-78
2021/03/24 07:20:37;;;;;;;16.13;11.43;;;6.40;99.90;;;;;;5104248;27;20282;-77
2021/03/24 07:23:23;;;;;;;18.02;14.05;;;6.50;99.90;;;;;;5124916;27;20450;-79
2021/03/24 07:25:59;;;;;;;18.50;13.20;;;6.60;99.90;;;;;;5115312;27;20205;-79
2021/03/24 07:29:01;;;;;;;19.60;13.43;;;6.70;99.90;;;;;;5112973;27;20448;-78
2021/03/24 07:31:46;;;;;;;15.82;11.25;;;6.90;99.90;;;;;;5121938;27;20455;-80
2021/03/24 07:34:29;;;;;;;18.60;14.93;;;6.90;99.90;;;;;;5124736;27;20229;-79
2021/03/24 07:37:30;;;;;;;19.90;12.80;;;7.00;99.90;;;;;;5128747;27;20447;-78
2021/03/24 07:40:39;;;;;;;16.17;12.20;;;7.10;99.90;;;;;;5118622;27;20508;-78
2021/03/24 07:43:20;;;;;;;13.83;11.70;;;7.30;99.90;;;;;;5119133;27;20799;-78
2021/03/24 07:46:09;;;;;;;16.07;11.50;;;7.40;99.90;;;;;;5125257;27;20462;-80
2021/03/24 07:48:53;;;;;;;15.33;11.00;;;7.50;99.90;;;;;;5102954;27;20544;-78
2021/03/24 07:51:49;;;;;;;13.90;10.97;;;7.60;99.90;;;;;;5120846;28;20463;-78
2021/03/24 07:54:21;;;;;;;13.57;10.23;;;7.80;99.90;;;;;;5124474;27;20469;-80
2021/03/24 07:56:57;;;;;;;14.90;11.40;;;8.00;99.90;;;;;;5123383;28;20686;-79
2021/03/24 07:59:36;;;;;;;13.70;10.20;;;8.30;99.90;;;;;;5124095;27;20912;-81
2021/03/24 08:02:29;;;;;;;15.00;10.63;;;8.50;99.90;;;;;;5128932;27;20548;-78
2021/03/24 08:05:29;;;;;;;14.53;10.60;;;8.60;99.90;;;;;;5127466;27;20527;-79
2021/03/24 08:08:08;;;;;;;14.40;10.07;;;8.80;99.90;;;;;;5133536;27;20490;-79
2021/03/24 08:10:41;;;;;;;15.03;10.80;;;9.00;99.90;;;;;;5126490;27;20457;-80
2021/03/24 08:13:53;;;;;;;13.90;9.70;;;9.20;99.90;;;;;;5122303;27;20533;-79
2021/03/24 08:16:39;;;;;;;10.50;8.53;;;9.40;99.90;;;;;;5119365;27;20549;-78
2021/03/24 08:19:21;;;;;;;15.30;10.80;;;9.60;99.90;;;;;;5112078;27;20535;-80
2021/03/24 08:22:06;;;;;;;15.37;9.67;;;10.00;99.90;;;;;;5126606;27;20507;-80
2021/03/24 08:24:51;;;;;;;12.77;8.70;;;10.10;99.90;;;;;;5111307;27;20449;-79
2021/03/24 08:27:25;;;;;;;13.60;9.40;;;10.20;99.90;;;;;;5124784;27;20454;-79
2021/03/24 08:30:12;;;;;;;13.07;10.07;;;10.30;99.90;;;;;;5109924;27;20467;-79
2021/03/24 08:33:08;;;;;;;15.20;11.00;;;10.50;99.90;;;;;;5128995;27;20473;-80
2021/03/24 08:36:08;;;;;;;13.37;10.10;;;10.50;99.90;;;;;;5115529;27;21029;-79
2021/03/24 08:39:21;;;;;;;18.70;11.53;;;10.50;99.90;;;;;;5126853;27;20983;-79
2021/03/24 08:42:12;;;;;;;18.67;11.50;;;10.60;99.90;;;;;;5113924;27;20733;-81
2021/03/24 08:44:46;;;;;;;15.17;11.53;;;10.60;99.90;;;;;;5137179;27;20444;-80
2021/03/24 08:47:19;;;;;;;13.43;11.07;;;10.70;99.90;;;;;;5111488;27;20709;-80
2021/03/24 08:49:49;;;;;;;13.37;9.90;;;10.70;99.90;;;;;;5114558;27;20467;-80
2021/03/24 08:52:30;;;;;;;16.00;11.60;;;11.20;99.90;;;;;;5112169;27;20461;-81
2021/03/24 08:55:18;;;;;;;15.67;9.53;;;10.80;99.90;;;;;;5132376;27;21062;-80
2021/03/24 08:58:02;;;;;;;15.90;10.30;;;10.90;99.90;;;;;;5130330;27;20461;-79
2021/03/24 09:00:46;;;;;;;13.90;11.53;;;11.00;99.90;;;;;;5112384;27;20512;-76
2021/03/24 09:03:57;;;;;;;15.75;13.95;;;11.10;99.90;;;;;;5125856;27;20432;-79
2021/03/24 09:06:33;;;;;;;13.67;12.10;;;11.20;99.90;;;;;;5132640;27;20683;-77
2021/03/24 09:09:12;;;;;;;15.70;11.40;;;11.30;99.90;;;;;;5112198;27;20454;-80
2021/03/24 09:11:47;;;;;;;15.60;11.87;;;11.40;99.90;;;;;;5129286;27;20761;-82
2021/03/24 09:14:25;;;;;;;14.43;11.13;;;11.40;99.90;;;;;;5126363;27;20494;-80
2021/03/24 09:17:25;;;;;;;15.50;11.93;;;11.40;99.90;;;;;;5103499;27;20453;-78
2021/03/24 09:20:24;;;;;;;12.63;10.10;;;11.60;99.90;;;;;;5128584;27;20464;-83
2021/03/24 09:23:22;;;;;;;13.60;10.40;;;11.50;99.90;;;;;;5097610;27;20459;-79
2021/03/24 09:25:54;;;;;;;14.70;9.50;;;11.40;99.90;;;;;;5068434;27;20531;-81
2021/03/24 09:28:43;;;;;;;13.47;9.70;;;11.40;99.90;;;;;;5121857;27;20543;-78
2021/03/24 09:31:36;;;;;;;13.00;10.30;;;11.50;99.90;;;;;;5124863;27;20470;-79
2021/03/24 09:34:12;;;;;;;14.93;10.30;;;11.60;99.90;;;;;;5121242;27;20481;-79
2021/03/24 09:36:51;;;;;;;14.43;10.63;;;11.70;99.90;;;;;;5128434;27;20440;-77
2021/03/24 09:39:23;;;;;;;15.63;11.60;;;11.70;99.90;;;;;;5126839;27;20463;-80
2021/03/24 09:41:57;;;;;;;14.10;10.40;;;11.80;99.90;;;;;;5123673;27;20458;-79
2021/03/24 09:44:31;;;;;;;12.90;9.87;;;12.00;99.90;;;;;;5121974;27;20532;-79
2021/03/24 09:47:00;;;;;;;13.87;9.83;;;12.10;99.90;;;;;;5110185;27;20447;-78
2021/03/24 09:49:33;;;;;;;16.27;10.97;;;12.20;99.90;;;;;;5130629;27;20451;-79
2021/03/24 09:52:28;;;;;;;15.93;10.13;;;12.30;99.90;;;;;;5125366;27;20452;-80
2021/03/24 09:55:17;;;;;;;13.43;9.80;;;12.40;99.90;;;;;;5117626;27;20502;-79
2021/03/24 09:58:07;;;;;;;15.03;10.07;;;12.40;99.90;;;;;;5123600;27;20448;-79
2021/03/24 10:00:48;;;;;;;14.80;9.37;;;12.40;99.90;;;;;;5122930;27;20473;-78
2021/03/24 10:03:29;;;;;;;13.03;8.73;;;12.20;99.90;;;;;;5122503;27;20535;-78
2021/03/24 10:06:00;;;;;;;10.70;8.47;;;12.20;99.90;;;;;;5123962;27;20555;-78
2021/03/24 10:08:34;;;;;;;13.37;8.80;;;12.40;99.90;;;;;;5128401;27;20449;-79
2021/03/24 10:11:08;;;;;;;14.13;10.00;;;12.60;99.90;;;;;;5126940;27;20471;-79
2021/03/24 10:13:45;;;;;;;11.13;7.83;;;12.60;99.90;;;;;;5123733;27;20482;-80
2021/03/24 10:16:18;;;;;;;10.60;8.10;;;12.60;99.90;;;;;;5125869;27;20457;-79
2021/03/24 10:18:55;;;;;;;11.13;8.70;;;12.80;99.90;;;;;;5128301;27;20445;-79
2021/03/24 10:21:27;;;;;;;9.40;7.50;;;12.90;99.90;;;;;;5106661;27;21160;-79
2021/03/24 10:23:59;;;;;;;12.13;7.77;;;13.10;99.90;;;;;;5104577;27;20467;-80
2021/03/24 10:26:31;;;;;;;8.20;7.10;;;13.20;99.90;;;;;;5123571;27;20441;-79
2021/03/24 10:28:59;;;;;;;9.93;7.20;;;13.30;99.90;;;;;;5125872;27;20449;-78
2021/03/24 10:31:31;;;;;;;10.40;8.47;;;13.40;99.90;;;;;;5123260;27;20464;-78
2021/03/24 10:34:10;;;;;;;9.73;6.47;;;13.60;99.90;;;;;;5126019;27;20476;-80
2021/03/24 10:36:45;;;;;;;9.70;6.97;;;13.70;99.90;;;;;;5121743;27;20447;-80
2021/03/24 10:39:19;;;;;;;8.40;6.30;;;13.80;99.90;;;;;;5124762;27;20463;-80
2021/03/24 10:41:56;;;;;;;9.10;7.13;;;13.80;99.90;;;;;;5125847;27;21118;-79
2021/03/24 10:44:38;;;;;;;6.47;5.77;;;13.80;99.90;;;;;;5126641;27;20457;-75
2021/03/24 10:47:26;;;;;;;9.47;7.10;;;13.80;99.90;;;;;;5125467;27;20453;-81
2021/03/24 10:50:09;;;;;;;8.67;6.80;;;14.00;99.90;;;;;;5123306;27;20486;-80
2021/03/24 10:52:39;;;;;;;7.53;6.03;;;14.10;99.90;;;;;;5120656;27;20457;-80
2021/03/24 10:55:15;;;;;;;9.13;6.80;;;14.20;99.90;;;;;;5123499;27;20480;-82
2021/03/24 10:57:50;;;;;;;7.87;6.07;;;14.30;99.90;;;;;;5120499;27;20455;-80
2021/03/24 11:00:24;;;;;;;10.93;6.00;;;14.30;99.90;;;;;;5126288;27;20494;-81
2021/03/24 11:03:05;;;;;;;10.60;8.77;;;14.50;99.90;;;;;;5106077;27;20858;-80
2021/03/24 11:05:41;;;;;;;8.40;7.50;;;14.50;99.90;;;;;;5116782;27;20489;-81
2021/03/24 11:08:21;;;;;;;9.50;6.40;;;14.50;99.90;;;;;;5101622;27;20448;-80
2021/03/24 11:10:54;;;;;;;12.47;7.57;;;14.50;99.90;;;;;;5108639;27;21040;-82
2021/03/24 11:13:32;;;;;;;11.00;8.13;;;14.60;99.90;;;;;;5104506;27;20455;-81
2021/03/24 11:16:13;;;;;;;11.17;7.67;;;14.70;99.90;;;;;;5118492;27;20475;-80
2021/03/24 11:18:44;;;;;;;13.03;7.60;;;14.70;99.90;;;;;;5122038;27;21060;-79
2021/03/24 11:21:34;;;;;;;8.83;6.40;;;14.80;99.90;;;;;;5127976;27;20450;-81
2021/03/24 11:24:24;;;;;;;10.93;6.70;;;14.90;99.90;;;;;;5126595;27;20443;-79
2021/03/24 11:27:16;;;;;;;6.40;5.20;;;15.00;99.90;;;;;;5125533;27;20998;-80
2021/03/24 11:29:52;;;;;;;7.90;6.43;;;15.10;99.20;;;;;;5116179;27;20502;-78
2021/03/24 11:32:30;;;;;;;7.80;5.60;;;15.10;99.00;;;;;;5100581;27;20566;-79
2021/03/24 11:35:06;;;;;;;8.23;5.83;;;15.10;97.10;;;;;;5123367;27;20828;-80
2021/03/24 11:37:50;;;;;;;8.00;6.57;;;15.00;95.10;;;;;;5109544;28;20494;-80
2021/03/24 11:40:30;;;;;;;9.67;6.00;;;15.10;97.10;;;;;;5137783;27;20490;-78
2021/03/24 11:43:02;;;;;;;7.47;5.70;;;15.20;96.80;;;;;;5125435;27;20454;-80
2021/03/24 11:45:31;;;;;;;9.70;6.70;;;15.20;95.70;;;;;;5118322;27;20451;-81
2021/03/24 11:48:23;;;;;;;5.40;4.90;;;15.20;96.30;;;;;;5124111;27;21011;-80
2021/03/24 11:51:04;;;;;;;6.57;5.70;;;15.30;92.30;;;;;;5104387;28;21049;-78
2021/03/24 11:54:01;;;;;;;11.27;5.80;;;15.20;91.90;;;;;;5107563;28;20442;-80
2021/03/24 11:56:49;;;;;;;7.13;5.67;;;15.10;93.90;;;;;;5124017;28;20809;-79
2021/03/24 11:59:26;;;;;;;8.50;6.77;;;15.20;93.20;;;;;;5103001;28;21051;-79
2021/03/24 12:02:05;;;;;;;10.13;5.80;;;15.10;88.50;;;;;;5117596;28;20533;-81
2021/03/24 12:05:05;;;;;;;7.27;5.97;;;15.00;90.30;;;;;;5122024;28;20466;-81
2021/03/24 12:07:47;;;;;;;7.20;6.30;;;14.90;91.20;;;;;;5105754;28;20461;-78
2021/03/24 12:10:35;;;;;;;8.03;6.10;;;15.00;91.20;;;;;;5119102;28;20527;-79
2021/03/24 12:13:20;;;;;;;12.77;6.17;;;15.20;90.10;;;;;;5117251;27;20475;-78
2021/03/24 12:16:00;;;;;;;6.67;6.03;;;15.30;91.10;;;;;;5121371;28;20471;-79
2021/03/24 12:18:27;;;;;;;7.57;6.80;;;15.30;90.50;;;;;;5117145;27;20483;-79
2021/03/24 12:20:58;;;;;;;9.43;5.43;;;15.40;92.30;;;;;;5123379;27;20508;-81
2021/03/24 12:23:28;;;;;;;8.20;6.47;;;15.50;91.30;;;;;;5123125;27;20830;-79
2021/03/24 12:25:59;;;;;;;8.13;5.40;;;15.50;91.70;;;;;;5125170;28;20811;-80
2021/03/24 12:28:32;;;;;;;6.43;5.57;;;15.60;92.80;;;;;;5108054;28;21062;-79
2021/03/24 12:31:14;;;;;;;10.40;5.97;;;15.70;92.00;;;;;;5125466;28;20454;-80
2021/03/24 12:33:49;;;;;;;6.00;5.10;;;15.70;92.70;;;;;;5099878;28;20457;-81
2021/03/24 12:36:21;;;;;;;7.07;5.00;;;15.90;93.70;;;;;;5121710;28;20590;-80
2021/03/24 12:38:54;;;;;;;7.87;5.87;;;16.00;93.50;;;;;;5118339;27;20480;-80
2021/03/24 12:41:31;;;;;;;7.33;5.57;;;16.00;92.30;;;;;;5117755;28;20958;-79
2021/03/24 12:44:09;;;;;;;9.80;5.87;;;16.10;91.30;;;;;;5124436;28;20521;-78
2021/03/24 12:46:47;;;;;;;8.63;5.70;;;15.90;86.00;;;;;;5105334;27;20452;-80
2021/03/24 12:49:17;;;;;;;6.90;5.67;;;15.90;89.10;;;;;;5102742;27;20567;-78
2021/03/24 12:51:48;;;;;;;6.53;4.93;;;16.00;90.40;;;;;;5130572;27;21035;-78
2021/03/24 12:54:15;;;;;;;8.23;4.93;;;16.00;88.20;;;;;;5122958;27;20535;-80
2021/03/24 12:57:02;;;;;;;7.83;4.70;;;16.20;92.90;;;;;;5127961;27;20466;-79
2021/03/24 12:59:46;;;;;;;5.17;4.47;;;16.40;92.30;;;;;;5121210;27;21041;-82
2021/03/24 13:02:46;;;;;;;4.47;3.93;;;16.50;92.40;;;;;;5124434;27;20450;-81
2021/03/24 13:05:34;;;;;;;8.53;4.90;;;16.50;91.80;;;;;;5124220;27;21068;-81
2021/03/24 13:08:21;;;;;;;6.17;5.10;;;16.60;90.80;;;;;;5127789;27;20505;-80
2021/03/24 13:10:51;;;;;;;5.77;4.17;;;16.60;87.80;;;;;;5128485;27;20476;-81
2021/03/24 13:13:43;;;;;;;10.90;5.30;;;16.60;89.00;;;;;;5105338;27;21320;-80
2021/03/24 13:16:16;;;;;;;4.43;3.70;;;16.50;78.30;;;;;;5132364;27;20478;-81
2021/03/24 13:18:50;;;;;;;7.10;4.47;;;16.30;77.30;;;;;;5129123;27;20446;-81
2021/03/24 13:21:42;;;;;;;7.00;4.00;;;16.10;71.50;;;;;;5124105;27;20449;-80
2021/03/24 13:24:46;;;;;;;3.40;3.10;;;16.20;73.80;;;;;;5131000;27;21024;-80
2021/03/24 13:27:28;;;;;;;4.40;3.87;;;16.30;72.70;;;;;;5130784;27;20470;-80
2021/03/24 13:30:05;;;;;;;5.50;4.00;;;16.40;74.30;;;;;;5108484;27;20502;-80
2021/03/24 13:32:41;;;;;;;5.37;4.70;;;16.60;79.60;;;;;;5129450;27;20448;-75
2021/03/24 13:35:17;;;;;;;5.10;3.67;;;16.70;80.30;;;;;;5126710;27;21062;-77
2021/03/24 13:37:45;;;;;;;5.30;4.30;;;16.80;79.10;;;;;;5130869;27;20444;-80